Destinations Aalborg Airport

Aalborg Airport (EKYT / AAL)

Flights to Aalborg Airport

Flight number From ETE Dispatch
SPY-302 EHGG Groningen Airport Eelde 01:25

Flights from Aalborg Airport

Flight number To ETE Dispatch
SPY-303 EHGG Groningen Airport Eelde 01:32
About

Aalborg Airport facts

Aalborg Airport is located in Aalborg at an elevation of 3.0 meters or 10 feet.

Currently, Speedy Airlines serves 2 flights to and from Aalborg Airport.

Detailed airport info

Route map

Weather

Current weather

METAR

METAR

Metar data retrieved Sunday, 21 July 2024 at 19:25 UTC

EKYT 211850Z 13007KT CAVOK 23/15 Q1008 RMK SKC
Wind Temperature
7 kt 23c